Mount Holly, North Carolina
Current Conditions -  °F | °C
As of 7:27 AM on Monday 24 Nov 2014 (Local Time) from KCLT Reporting Station
Overcast Overcast  
Wind Chill: 61°   Ceiling: 2300
Heat Index: 61°   Visibility: 10mi
Dew Point: 55°   Wind: 9mph
Humidity: 82%   Direction: 200°SSW
Pressure: 29.8"   Gusts: NA
Location:  35.3°N, 81.02°W
Report Text: KCLT 241227Z 20008KT 10SM BKN023 OVC030 16/13 A2980 RMK AO2
Loading
Personal Weather Stations






























Interactive Weather Map New forecast layout! Learn more

10-Day Weather Forecast

Advertisements
Track Severe Weather on mobile